createdAt,value
2018-08-11T00:01:32.457Z,101030.30
2018-08-11T00:04:05.905Z,101022.80
2018-08-11T00:06:39.402Z,101014.03
2018-08-11T00:09:12.957Z,101014.61
2018-08-11T00:11:46.410Z,101014.30
2018-08-11T00:14:19.983Z,101011.92
2018-08-11T00:16:53.501Z,101005.42
2018-08-11T00:19:26.954Z,101005.87
2018-08-11T00:22:00.424Z,100999.99
2018-08-11T00:24:33.860Z,101000.38
2018-08-11T00:27:07.391Z,100987.68
2018-08-11T00:29:40.851Z,100990.70
2018-08-11T00:32:14.284Z,100987.38
2018-08-11T00:34:47.944Z,100984.76
2018-08-11T00:37:21.430Z,100987.70
2018-08-11T00:39:54.833Z,100980.91
2018-08-11T00:42:28.275Z,100981.41
2018-08-11T00:45:01.703Z,100983.67
2018-08-11T00:47:35.297Z,100978.91
2018-08-11T00:50:12.791Z,100981.66
2018-08-11T00:52:46.299Z,100972.31
2018-08-11T00:55:19.790Z,100976.88
2018-08-11T00:57:53.289Z,100969.17
2018-08-11T01:00:26.860Z,100971.61
2018-08-11T01:03:00.408Z,100972.89
2018-08-11T01:05:33.908Z,100968.97
2018-08-11T01:08:07.347Z,100968.84
2018-08-11T01:10:40.777Z,100970.45
2018-08-11T01:13:14.351Z,100972.13
2018-08-11T01:15:47.792Z,100967.33
2018-08-11T01:18:21.276Z,100967.25
2018-08-11T01:20:54.677Z,100960.45
2018-08-11T01:23:28.137Z,100963.48
2018-08-11T01:26:01.536Z,100960.77
2018-08-11T01:28:35.003Z,100963.16
2018-08-11T01:31:08.408Z,100962.19
2018-08-11T01:33:41.838Z,100960.78
2018-08-11T01:36:15.284Z,100961.10
2018-08-11T01:38:48.744Z,100958.77
2018-08-11T01:41:22.141Z,100960.28
2018-08-11T01:43:55.611Z,100956.44
2018-08-11T01:46:29.072Z,100956.36
2018-08-11T01:49:02.623Z,100954.50
2018-08-11T01:51:36.011Z,100958.20
2018-08-11T01:54:09.426Z,100951.63
2018-08-11T01:56:42.823Z,100949.81
2018-08-11T01:59:16.273Z,100947.64
2018-08-11T02:01:49.727Z,100946.72
2018-08-11T02:04:23.130Z,100950.88
2018-08-11T02:06:56.565Z,100938.80
2018-08-11T02:09:30.004Z,100938.36
2018-08-11T02:12:03.469Z,100931.57
2018-08-11T02:14:36.904Z,100938.05
2018-08-11T02:17:10.448Z,100932.09
2018-08-11T02:19:43.847Z,100928.67
2018-08-11T02:22:17.296Z,100920.97
2018-08-11T02:24:50.757Z,100920.89
2018-08-11T02:27:24.157Z,100916.50
2018-08-11T02:29:57.596Z,100920.36
2018-08-11T02:32:31.070Z,100918.63
2018-08-11T02:35:05.289Z,100915.92
2018-08-11T02:37:38.831Z,100909.80
2018-08-11T02:40:13.554Z,100909.27
2018-08-11T02:42:47.064Z,100917.78
2018-08-11T02:45:20.506Z,100911.22
2018-08-11T02:47:54.060Z,100907.81
2018-08-11T02:50:27.475Z,100908.20
2018-08-11T02:53:01.046Z,100897.28
2018-08-11T02:55:34.417Z,100899.65
2018-08-11T02:58:07.811Z,100902.13
2018-08-11T03:00:41.268Z,100899.56
2018-08-11T03:03:14.705Z,100897.65
2018-08-11T03:05:48.079Z,100897.29
2018-08-11T03:08:21.485Z,100895.47
2018-08-11T03:10:54.882Z,100891.29
2018-08-11T03:13:28.309Z,100896.88
2018-08-11T03:16:01.712Z,100885.81
2018-08-11T03:18:35.149Z,100897.44
2018-08-11T03:21:08.615Z,100896.00
2018-08-11T03:23:42.035Z,100896.81
2018-08-11T03:26:15.453Z,100898.84
2018-08-11T03:28:48.884Z,100903.45
2018-08-11T03:31:22.371Z,100901.71
2018-08-11T03:33:55.984Z,100909.69
2018-08-11T03:36:29.420Z,100910.02
2018-08-11T03:39:02.925Z,100919.02
2018-08-11T03:41:36.379Z,100911.21
2018-08-11T03:44:10.260Z,100917.84
2018-08-11T03:46:43.696Z,100927.43
2018-08-11T03:49:17.165Z,100919.83
2018-08-11T03:51:50.625Z,100916.16
2018-08-11T03:54:24.115Z,100923.62
2018-08-11T03:56:57.545Z,100929.51
2018-08-11T03:59:31.107Z,100928.87
2018-08-11T04:02:04.614Z,100935.65
2018-08-11T04:04:38.128Z,100940.19
2018-08-11T04:07:11.621Z,100937.48
2018-08-11T04:09:45.079Z,100939.05
2018-08-11T04:12:18.588Z,100948.06
2018-08-11T04:14:52.003Z,100942.84
2018-08-11T04:17:29.568Z,100955.97
2018-08-11T04:20:03.078Z,100957.29
2018-08-11T04:22:36.653Z,100958.09
2018-08-11T04:25:10.583Z,100960.50
2018-08-11T04:27:43.983Z,100962.20
2018-08-11T04:30:17.834Z,100960.47
2018-08-11T04:32:51.230Z,100969.24
2018-08-11T04:35:24.684Z,100976.83
2018-08-11T04:37:58.066Z,100980.59
2018-08-11T04:40:31.506Z,100985.55
2018-08-11T04:43:04.888Z,101002.22
2018-08-11T04:45:38.298Z,101018.02
2018-08-11T04:48:11.776Z,101026.58
2018-08-11T04:50:45.200Z,101033.49
2018-08-11T04:53:18.597Z,101022.88
2018-08-11T04:55:52.040Z,101031.33
2018-08-11T04:58:25.442Z,101022.71
2018-08-11T05:00:58.885Z,101020.88
2018-08-11T05:03:32.290Z,101010.03
2018-08-11T05:06:05.708Z,100997.23
2018-08-11T05:08:39.116Z,100986.88
2018-08-11T05:11:12.525Z,100982.11
2018-08-11T05:13:45.966Z,100972.63
2018-08-11T05:16:19.473Z,100972.52
2018-08-11T05:18:52.895Z,100959.55
2018-08-11T05:21:26.353Z,100961.61
2018-08-11T05:23:59.754Z,100964.59
2018-08-11T05:26:33.164Z,100983.00
2018-08-11T05:29:06.837Z,100998.52
2018-08-11T05:31:40.474Z,100999.73
2018-08-11T05:34:14.046Z,100993.69
2018-08-11T05:36:48.155Z,101002.59
2018-08-11T05:39:21.733Z,100998.28
2018-08-11T05:41:55.320Z,100999.81
2018-08-11T05:44:28.906Z,101000.59
2018-08-11T05:47:02.497Z,101004.00
2018-08-11T05:49:36.125Z,101013.36
2018-08-11T05:52:09.727Z,101016.70
2018-08-11T05:54:43.319Z,101021.80
2018-08-11T05:57:17.072Z,101017.69
2018-08-11T05:59:50.662Z,101013.89
2018-08-11T06:02:24.290Z,101016.66
2018-08-11T06:04:57.909Z,101027.69
2018-08-11T06:07:31.594Z,101027.53
2018-08-11T06:10:06.698Z,101024.45
2018-08-11T06:12:40.402Z,101028.83
2018-08-11T06:15:14.088Z,101032.93
2018-08-11T06:17:47.671Z,101028.20
2018-08-11T06:20:21.307Z,101022.13
2018-08-11T06:22:54.966Z,101033.03
2018-08-11T06:25:28.615Z,101043.55
2018-08-11T06:28:02.216Z,101054.22
2018-08-11T06:30:35.892Z,101054.98
2018-08-11T06:33:09.590Z,101054.86
2018-08-11T06:35:43.148Z,101056.38
2018-08-11T06:38:16.777Z,101050.61
2018-08-11T06:40:50.474Z,101044.66
2018-08-11T06:43:24.001Z,101044.73
2018-08-11T06:45:57.419Z,101037.67
2018-08-11T06:48:31.073Z,101050.80
2018-08-11T06:51:04.788Z,101047.65
2018-08-11T06:53:38.372Z,101043.70
2018-08-11T06:56:11.842Z,101044.34
2018-08-11T06:58:45.235Z,101040.71
2018-08-11T07:01:18.784Z,101040.58
2018-08-11T07:03:52.754Z,101040.45
2018-08-11T07:06:26.203Z,101041.70
2018-08-11T07:09:00.561Z,101033.67
2018-08-11T07:11:34.718Z,101040.99
2018-08-11T07:14:09.041Z,101043.86
2018-08-11T07:16:43.491Z,101039.98
2018-08-11T07:19:17.589Z,101037.91
2018-08-11T07:21:51.991Z,101037.70
2018-08-11T07:24:26.054Z,101037.16
2018-08-11T07:27:00.499Z,101035.49
2018-08-11T07:29:35.141Z,101041.23
2018-08-11T07:32:09.821Z,101034.81
2018-08-11T07:34:43.828Z,101040.92
2018-08-11T07:37:18.255Z,101045.58
2018-08-11T07:39:52.602Z,101043.98
2018-08-11T07:42:27.549Z,101042.83
2018-08-11T07:45:04.285Z,101046.64
2018-08-11T07:47:38.796Z,101051.75
2018-08-11T07:50:13.200Z,101049.12
2018-08-11T07:52:47.164Z,101059.67
2018-08-11T07:55:21.145Z,101053.53
2018-08-11T07:57:55.173Z,101053.53
2018-08-11T08:00:29.189Z,101053.20
2018-08-11T08:03:03.410Z,101052.66
2018-08-11T08:05:37.518Z,101045.67
2018-08-11T08:08:11.302Z,101059.30
2018-08-11T08:10:45.278Z,101068.64
2018-08-11T08:13:19.076Z,101058.84
2018-08-11T08:15:53.071Z,101063.60
2018-08-11T08:18:27.142Z,101067.81
2018-08-11T08:21:01.298Z,101068.63
2018-08-11T08:23:35.403Z,101068.89
2018-08-11T08:26:09.419Z,101077.41
2018-08-11T08:28:43.458Z,101071.27
2018-08-11T08:31:17.882Z,101075.28
2018-08-11T08:33:51.933Z,101063.55
2018-08-11T08:36:25.928Z,101067.66
2018-08-11T08:38:59.908Z,101070.13
2018-08-11T08:41:33.797Z,101070.03
2018-08-11T08:44:07.988Z,101061.75
2018-08-11T08:46:42.456Z,101059.58
2018-08-11T08:49:16.546Z,101048.23
2018-08-11T08:51:50.911Z,101045.23
2018-08-11T08:54:25.120Z,101050.36
2018-08-11T08:56:59.027Z,101051.94
2018-08-11T08:59:33.078Z,101053.43
2018-08-11T09:02:07.433Z,101046.81
2018-08-11T09:04:40.970Z,101052.86
2018-08-11T09:07:14.431Z,101047.19
2018-08-11T09:09:47.977Z,101034.87
2018-08-11T09:12:21.371Z,101041.30
2018-08-11T09:14:54.841Z,101039.47
2018-08-11T09:17:28.696Z,101043.22
2018-08-11T09:20:02.176Z,101060.36
2018-08-11T09:22:36.271Z,101051.23
2018-08-11T09:25:10.064Z,101047.81
2018-08-11T09:27:50.562Z,101043.73
2018-08-11T09:30:24.766Z,101041.18
2018-08-11T09:32:58.806Z,101050.14
2018-08-11T09:35:33.041Z,101043.64
2018-08-11T09:38:07.174Z,101045.91
2018-08-11T09:40:43.476Z,101048.94
2018-08-11T09:43:18.081Z,101042.70
2018-08-11T09:45:52.569Z,101038.07
2018-08-11T09:48:26.480Z,101038.05
2018-08-11T09:51:00.282Z,101038.62
2018-08-11T09:53:34.196Z,101046.02
2018-08-11T09:56:08.173Z,101051.06
2018-08-11T09:58:42.827Z,101047.50
2018-08-11T10:01:22.439Z,101048.23
2018-08-11T10:03:56.237Z,101049.83
2018-08-11T10:06:29.688Z,101037.77
2018-08-11T10:09:03.287Z,101035.17
2018-08-11T10:11:36.852Z,101039.52
2018-08-11T10:14:10.267Z,101028.20
2018-08-11T10:16:43.681Z,101027.13
2018-08-11T10:19:17.102Z,101012.35
2018-08-11T10:21:50.545Z,101020.66
2018-08-11T10:24:23.993Z,101017.27
2018-08-11T10:26:57.454Z,101025.83
2018-08-11T10:29:31.061Z,101020.89
2018-08-11T10:32:04.457Z,101017.74
2018-08-11T10:34:37.886Z,101013.30
2018-08-11T10:37:11.282Z,101010.23
2018-08-11T10:39:44.718Z,101016.91
2018-08-11T10:42:18.079Z,101018.93
2018-08-11T10:44:52.263Z,101005.39
2018-08-11T10:47:25.729Z,101012.38
2018-08-11T10:49:59.241Z,101000.89
2018-08-11T10:52:34.075Z,101013.36
2018-08-11T10:55:07.553Z,101013.00
2018-08-11T10:57:40.976Z,101014.66
2018-08-11T11:00:14.391Z,101019.46
2018-08-11T11:02:47.767Z,101021.41
2018-08-11T11:05:21.343Z,101023.85
2018-08-11T11:07:54.726Z,101031.05
2018-08-11T11:10:28.267Z,101037.98
2018-08-11T11:13:01.665Z,101034.13
2018-08-11T11:15:35.085Z,101040.66
2018-08-11T11:18:08.485Z,101047.08
2018-08-11T11:20:41.944Z,101055.89
2018-08-11T11:23:15.400Z,101063.45
2018-08-11T11:25:48.795Z,101058.89
2018-08-11T11:28:22.178Z,101052.66
2018-08-11T11:30:55.637Z,101051.48
2018-08-11T11:33:29.151Z,101054.96
2018-08-11T11:36:02.552Z,101054.91
2018-08-11T11:38:36.032Z,101049.26
2018-08-11T11:41:09.489Z,101053.98
2018-08-11T11:43:42.996Z,101045.61
2018-08-11T11:46:16.954Z,101039.28
2018-08-11T11:48:50.461Z,101040.59
2018-08-11T11:51:23.832Z,101034.92
2018-08-11T11:53:57.295Z,101037.63
2018-08-11T11:56:30.723Z,101031.88
2018-08-11T11:59:04.156Z,101041.27
2018-08-11T12:01:37.553Z,101046.20
2018-08-11T12:04:10.972Z,101046.97
2018-08-11T12:06:44.376Z,101049.56
2018-08-11T12:09:17.816Z,101041.94
2018-08-11T12:11:51.460Z,101042.16
2018-08-11T12:14:24.868Z,101041.69
2018-08-11T12:16:58.299Z,101032.28
2018-08-11T12:19:31.746Z,101025.70
2018-08-11T12:22:05.328Z,101022.38
2018-08-11T12:24:38.981Z,101025.80
2018-08-11T12:27:12.460Z,101017.58
2018-08-11T12:29:46.154Z,101016.95
2018-08-11T12:32:19.738Z,101010.52
2018-08-11T12:34:53.344Z,101016.66
2018-08-11T12:37:26.770Z,101017.95
2018-08-11T12:40:00.290Z,101023.59
2018-08-11T12:42:34.007Z,101023.70
2018-08-11T12:45:07.464Z,101023.12
2018-08-11T12:47:41.445Z,101040.36
2018-08-11T12:50:14.872Z,101074.78
2018-08-11T12:52:48.250Z,101095.63
2018-08-11T12:55:21.688Z,101118.28
2018-08-11T12:57:55.097Z,101154.45
2018-08-11T13:00:28.540Z,101151.98
2018-08-11T13:03:01.920Z,101151.09
2018-08-11T13:05:35.422Z,101136.13
2018-08-11T13:08:08.804Z,101130.83
2018-08-11T13:10:42.194Z,101138.00
2018-08-11T13:13:15.605Z,101129.41
2018-08-11T13:15:49.089Z,101116.44
2018-08-11T13:18:22.517Z,101120.61
2018-08-11T13:20:56.227Z,101120.69
2018-08-11T13:23:29.814Z,101120.59
2018-08-11T13:26:03.798Z,101120.94
2018-08-11T13:29:00.069Z,101112.86
2018-08-11T13:31:37.067Z,101110.02
2018-08-11T13:34:19.473Z,101107.79
2018-08-11T13:39:36.966Z,101106.95
2018-08-11T13:42:10.443Z,101101.66
2018-08-11T13:44:43.844Z,101098.77
2018-08-11T13:47:17.898Z,101104.70
2018-08-11T13:49:51.316Z,101106.95
2018-08-11T13:52:25.132Z,101093.45
2018-08-11T13:54:58.945Z,101093.34
2018-08-11T13:57:32.512Z,101095.31
2018-08-11T14:00:07.483Z,101100.09
2018-08-11T14:02:41.341Z,101096.39
2018-08-11T14:05:15.007Z,101104.23
2018-08-11T14:07:49.234Z,101104.11
2018-08-11T14:10:23.218Z,101118.30
2018-08-11T14:12:57.008Z,101112.98
2018-08-11T14:15:30.940Z,101113.66
2018-08-11T14:18:04.944Z,101114.36
2018-08-11T14:20:38.766Z,101121.73
2018-08-11T14:23:12.414Z,101124.24
2018-08-11T14:25:46.741Z,101123.44
2018-08-11T14:28:20.518Z,101122.36
2018-08-11T14:30:54.284Z,101120.27
2018-08-11T14:33:28.104Z,101123.64
2018-08-11T14:36:02.037Z,101113.75
2018-08-11T14:38:35.955Z,101115.53
2018-08-11T14:41:09.713Z,101112.33
2018-08-11T14:43:43.410Z,101113.28
2018-08-11T14:46:17.342Z,101109.39
2018-08-11T14:48:51.341Z,101107.17
2018-08-11T14:51:25.188Z,101115.86
2018-08-11T14:53:59.080Z,101114.50
2018-08-11T14:56:32.564Z,101122.27
2018-08-11T14:59:06.127Z,101107.19
2018-08-11T15:01:39.627Z,101103.76
2018-08-11T15:04:13.013Z,101102.59
2018-08-11T15:06:46.418Z,101105.81
2018-08-11T15:09:19.785Z,101104.05
2018-08-11T15:11:53.182Z,101106.30
2018-08-11T15:14:26.553Z,101112.59
2018-08-11T15:17:00.060Z,101120.81
2018-08-11T15:19:33.463Z,101120.59
2018-08-11T15:22:06.915Z,101129.82
2018-08-11T15:24:40.283Z,101120.56
2018-08-11T15:27:13.697Z,101107.91
2018-08-11T15:29:47.176Z,101124.36
2018-08-11T15:32:20.561Z,101127.58
2018-08-11T15:34:54.018Z,101126.13
2018-08-11T15:37:27.443Z,101125.05
2018-08-11T15:40:00.830Z,101120.11
2018-08-11T15:42:34.321Z,101126.59
2018-08-11T15:45:08.143Z,101119.73
2018-08-11T15:47:41.543Z,101122.23
2018-08-11T15:50:14.999Z,101126.30
2018-08-11T15:52:48.398Z,101141.40
2018-08-11T15:55:21.789Z,101130.72
2018-08-11T15:57:55.192Z,101119.73
2018-08-11T16:00:28.769Z,101126.53
2018-08-11T16:03:02.170Z,101120.41
2018-08-11T16:05:35.579Z,101106.30
2018-08-11T16:08:08.969Z,101111.12
2018-08-11T16:10:42.355Z,101119.05
2018-08-11T16:13:15.787Z,101129.52
2018-08-11T16:15:49.195Z,101140.25
2018-08-11T16:18:22.599Z,101135.45
2018-08-11T16:20:55.972Z,101135.20
2018-08-11T16:23:29.414Z,101131.49
2018-08-11T16:26:02.785Z,101134.02
2018-08-11T16:28:36.320Z,101131.05
2018-08-11T16:31:09.723Z,101139.05
2018-08-11T16:33:43.309Z,101136.05
2018-08-11T16:36:16.760Z,101130.78
2018-08-11T16:38:54.266Z,101143.47
2018-08-11T16:41:27.734Z,101143.69
2018-08-11T16:44:01.167Z,101148.72
2018-08-11T16:46:34.561Z,101151.31
2018-08-11T16:49:07.963Z,101147.27
2018-08-11T16:51:41.337Z,101140.78
2018-08-11T16:54:14.714Z,101153.16
2018-08-11T16:56:48.089Z,101150.25
2018-08-11T16:59:21.504Z,101149.11
2018-08-11T17:01:54.961Z,101148.57
2018-08-11T17:04:28.372Z,101145.75
2018-08-11T17:07:01.806Z,101149.80
2018-08-11T17:09:35.181Z,101144.14
2018-08-11T17:12:08.663Z,101146.61
2018-08-11T17:14:42.124Z,101151.38
2018-08-11T17:17:15.477Z,101151.02
2018-08-11T17:19:48.839Z,101152.68
2018-08-11T17:22:22.236Z,101153.37
2018-08-11T17:24:55.595Z,101145.84
2018-08-11T17:27:29.023Z,101152.16
2018-08-11T17:30:02.419Z,101148.18
2018-08-11T17:32:36.035Z,101159.03
2018-08-11T17:35:09.362Z,101152.83
2018-08-11T17:37:42.760Z,101158.34
2018-08-11T17:40:16.142Z,101154.20
2018-08-11T17:42:49.563Z,101157.66
2018-08-11T17:45:23.030Z,101156.13
2018-08-11T17:47:56.424Z,101159.48
2018-08-11T17:50:29.841Z,101167.50
2018-08-11T17:53:03.262Z,101173.97
2018-08-11T17:55:36.741Z,101162.83
2018-08-11T17:58:10.052Z,101166.40
2018-08-11T18:00:43.466Z,101166.05
2018-08-11T18:03:16.918Z,101158.36
2018-08-11T18:05:50.306Z,101161.33
2018-08-11T18:08:23.769Z,101159.25
2018-08-11T18:10:57.162Z,101162.69
2018-08-11T18:13:30.559Z,101165.27
2018-08-11T18:16:03.976Z,101160.59
2018-08-11T18:18:37.383Z,101164.91
2018-08-11T18:21:10.822Z,101164.56
2018-08-11T18:23:44.220Z,101173.39
2018-08-11T18:26:18.571Z,101173.84
2018-08-11T18:28:52.820Z,101175.20
2018-08-11T18:31:28.607Z,101180.64
2018-08-11T18:34:02.795Z,101181.08
2018-08-11T18:36:36.712Z,101172.67
2018-08-11T18:39:12.710Z,101174.09
2018-08-11T18:41:46.721Z,101180.78
2018-08-11T18:44:20.919Z,101183.14
2018-08-11T18:46:56.122Z,101181.73
2018-08-11T18:49:30.335Z,101188.20
2018-08-11T18:52:04.794Z,101186.73
2018-08-11T18:54:38.615Z,101187.20
2018-08-11T18:57:12.724Z,101185.25
2018-08-11T18:59:46.867Z,101193.30
2018-08-11T19:02:20.977Z,101196.52
2018-08-11T19:04:55.209Z,101200.19
2018-08-11T19:07:29.542Z,101205.19
2018-08-11T19:10:03.010Z,101206.80
2018-08-11T19:12:37.017Z,101210.22
2018-08-11T19:15:13.320Z,101212.79
2018-08-11T19:17:46.730Z,101208.85
2018-08-11T19:20:20.262Z,101208.75
2018-08-11T19:22:53.851Z,101211.20
2018-08-11T19:25:27.379Z,101206.77
2018-08-11T19:28:01.465Z,101215.77
2018-08-11T19:30:35.663Z,101217.67
2018-08-11T19:33:09.970Z,101217.06
2018-08-11T19:35:44.109Z,101215.96
2018-08-11T19:38:18.306Z,101219.56
2018-08-11T19:40:52.569Z,101215.88
2018-08-11T19:43:26.984Z,101219.13
2018-08-11T19:46:01.330Z,101218.56
2018-08-11T19:48:35.472Z,101214.14
2018-08-11T19:51:09.872Z,101212.41
2018-08-11T19:53:44.076Z,101208.87
2018-08-11T19:56:19.014Z,101214.86
2018-08-11T19:58:53.116Z,101207.37
2018-08-11T20:01:27.337Z,101210.44
2018-08-11T20:04:01.647Z,101213.92
2018-08-11T20:06:36.532Z,101217.05
2018-08-11T20:09:10.506Z,101219.48
2018-08-11T20:11:43.905Z,101218.52
2018-08-11T20:14:17.327Z,101213.02
2018-08-11T20:16:50.709Z,101220.17
2018-08-11T20:19:24.351Z,101223.75
2018-08-11T20:21:57.563Z,101224.78
2018-08-11T20:24:30.981Z,101220.36
2018-08-11T20:27:04.409Z,101220.25
2018-08-11T20:29:39.180Z,101224.27
2018-08-11T20:32:13.798Z,101223.07
2018-08-11T20:34:47.238Z,101220.68
2018-08-11T20:37:20.821Z,101216.48
2018-08-11T20:39:54.393Z,101209.27
2018-08-11T20:42:27.923Z,101209.69
2018-08-11T20:45:01.382Z,101214.52
2018-08-11T20:47:34.780Z,101207.36
2018-08-11T20:50:08.901Z,101209.60
2018-08-11T20:52:42.637Z,101209.27
2018-08-11T20:55:16.082Z,101205.08
2018-08-11T20:57:49.446Z,101210.02
2018-08-11T21:00:22.909Z,101211.47
2018-08-11T21:02:56.263Z,101208.15
2018-08-11T21:05:29.732Z,101208.17
2018-08-11T21:08:03.153Z,101206.14
2018-08-11T21:10:36.576Z,101213.44
2018-08-11T21:13:10.040Z,101205.38
2018-08-11T21:15:43.467Z,101205.52
2018-08-11T21:18:16.960Z,101209.11
2018-08-11T21:20:50.361Z,101210.05
2018-08-11T21:23:23.772Z,101205.83
2018-08-11T21:25:57.196Z,101207.59
2018-08-11T21:28:30.829Z,101208.48
2018-08-11T21:31:04.368Z,101209.41
2018-08-11T21:33:37.736Z,101216.72
2018-08-11T21:36:11.190Z,101213.78
2018-08-11T21:38:44.570Z,101214.47
2018-08-11T21:41:18.256Z,101213.77
2018-08-11T21:43:51.654Z,101210.06
2018-08-11T21:46:25.081Z,101209.75
2018-08-11T21:48:58.505Z,101213.80
2018-08-11T21:51:31.936Z,101208.64
2018-08-11T21:54:05.331Z,101211.66
2018-08-11T21:56:38.825Z,101215.95
2018-08-11T21:59:12.223Z,101217.26
2018-08-11T22:01:46.751Z,101216.95
2018-08-11T22:04:20.500Z,101213.22
2018-08-11T22:06:54.004Z,101212.52
2018-08-11T22:09:27.523Z,101216.13
2018-08-11T22:12:01.310Z,101211.19
2018-08-11T22:14:35.014Z,101205.70
2018-08-11T22:17:08.582Z,101204.86
2018-08-11T22:19:42.179Z,101210.44
2018-08-11T22:22:15.750Z,101207.99
2018-08-11T22:24:49.406Z,101206.85
2018-08-11T22:27:22.998Z,101207.60
2018-08-11T22:29:56.498Z,101208.83
2018-08-11T22:32:30.121Z,101201.58
2018-08-11T22:35:04.547Z,101200.28
2018-08-11T22:37:38.091Z,101200.48
2018-08-11T22:40:11.687Z,101200.17
2018-08-11T22:42:45.299Z,101198.94
2018-08-11T22:45:18.965Z,101190.72
2018-08-11T22:47:52.532Z,101184.84
2018-08-11T22:50:26.010Z,101185.23
2018-08-11T22:52:59.588Z,101182.59
2018-08-11T22:55:33.214Z,101184.33
2018-08-11T22:58:06.948Z,101189.91
2018-08-11T23:00:40.543Z,101187.78
2018-08-11T23:03:14.061Z,101187.39
2018-08-11T23:05:47.737Z,101189.51
2018-08-11T23:08:21.297Z,101186.50
2018-08-11T23:10:55.021Z,101186.89
2018-08-11T23:13:28.675Z,101189.00
2018-08-11T23:16:02.267Z,101187.71
2018-08-11T23:18:35.966Z,101184.64
2018-08-11T23:21:09.617Z,101184.20
2018-08-11T23:23:43.200Z,101181.61
2018-08-11T23:26:16.696Z,101184.18
2018-08-11T23:28:50.292Z,101175.64
2018-08-11T23:31:23.948Z,101177.02
2018-08-11T23:33:57.507Z,101171.98
2018-08-11T23:36:31.048Z,101163.45
2018-08-11T23:39:07.234Z,101165.63
2018-08-11T23:41:41.511Z,101168.27
2018-08-11T23:44:14.954Z,101158.52
2018-08-11T23:46:48.536Z,101154.75
2018-08-11T23:49:22.026Z,101157.25
2018-08-11T23:51:55.582Z,101157.60
2018-08-11T23:54:29.109Z,101154.98
2018-08-11T23:57:03.105Z,101148.17
2018-08-11T23:59:36.914Z,101148.76
